sensor_id;sensor_type;location;lat;lon;timestamp;noise_LAeq;noise_LA_min;noise_LA_max;noise_LA01;noise_LA95
66460;Laerm;58055;52.456;4.738;2023-08-08T00:00:05;53.03;50.50;56.04;;
66460;Laerm;58055;52.456;4.738;2023-08-08T00:00:16;53.43;50.90;59.11;;
66460;Laerm;58055;52.456;4.738;2023-08-08T00:00:26;52.89;50.69;56.06;;
66460;Laerm;58055;52.456;4.738;2023-08-08T00:00:36;52.38;50.85;60.51;;
66460;Laerm;58055;52.456;4.738;2023-08-08T00:00:47;52.24;50.37;56.12;;
66460;Laerm;58055;52.456;4.738;2023-08-08T00:00:57;52.88;50.18;59.51;;
66460;Laerm;58055;52.456;4.738;2023-08-08T00:01:09;53.12;50.89;57.33;;
66460;Laerm;58055;52.456;4.738;2023-08-08T00:01:19;53.20;50.64;56.99;;
66460;Laerm;58055;52.456;4.738;2023-08-08T00:01:29;53.01;50.85;56.48;;
66460;Laerm;58055;52.456;4.738;2023-08-08T00:01:39;53.26;50.68;55.76;;
66460;Laerm;58055;52.456;4.738;2023-08-08T00:01:52;53.51;50.78;56.58;;
66460;Laerm;58055;52.456;4.738;2023-08-08T00:02:03;53.65;51.20;57.25;;
66460;Laerm;58055;52.456;4.738;2023-08-08T00:02:13;53.08;51.36;64.44;;
66460;Laerm;58055;52.456;4.738;2023-08-08T00:02:23;51.77;47.96;56.78;;
66460;Laerm;58055;52.456;4.738;2023-08-08T00:02:34;51.34;47.99;57.49;;
66460;Laerm;58055;52.456;4.738;2023-08-08T00:02:44;53.42;49.23;59.75;;
66460;Laerm;58055;52.456;4.738;2023-08-08T00:02:54;53.79;50.45;58.19;;
66460;Laerm;58055;52.456;4.738;2023-08-08T00:03:04;53.35;50.17;57.53;;
66460;Laerm;58055;52.456;4.738;2023-08-08T00:03:15;52.86;49.75;59.28;;
66460;Laerm;58055;52.456;4.738;2023-08-08T00:03:25;53.54;50.28;56.87;;
66460;Laerm;58055;52.456;4.738;2023-08-08T00:03:35;53.22;51.65;59.39;;
66460;Laerm;58055;52.456;4.738;2023-08-08T00:03:46;53.67;51.71;58.52;;
66460;Laerm;58055;52.456;4.738;2023-08-08T00:03:56;53.63;51.30;62.78;;
66460;Laerm;58055;52.456;4.738;2023-08-08T00:04:06;53.95;51.53;60.34;;
66460;Laerm;58055;52.456;4.738;2023-08-08T00:04:16;54.22;51.17;61.34;;
66460;Laerm;58055;52.456;4.738;2023-08-08T00:04:27;53.77;51.58;57.02;;
66460;Laerm;58055;52.456;4.738;2023-08-08T00:04:37;53.71;51.90;56.38;;
66460;Laerm;58055;52.456;4.738;2023-08-08T00:04:48;53.60;50.83;56.90;;
66460;Laerm;58055;52.456;4.738;2023-08-08T00:04:59;54.19;51.14;57.01;;
66460;Laerm;58055;52.456;4.738;2023-08-08T00:05:09;52.33;48.93;56.46;;
66460;Laerm;58055;52.456;4.738;2023-08-08T00:05:19;52.07;48.35;59.33;;
66460;Laerm;58055;52.456;4.738;2023-08-08T00:05:30;52.92;49.34;59.83;;
66460;Laerm;58055;52.456;4.738;2023-08-08T00:05:40;51.11;49.49;57.91;;
66460;Laerm;58055;52.456;4.738;2023-08-08T00:05:50;53.64;49.39;59.36;;
66460;Laerm;58055;52.456;4.738;2023-08-08T00:06:00;53.67;49.52;60.52;;
66460;Laerm;58055;52.456;4.738;2023-08-08T00:06:11;52.40;49.18;59.17;;
66460;Laerm;58055;52.456;4.738;2023-08-08T00:06:21;52.57;48.92;67.36;;
66460;Laerm;58055;52.456;4.738;2023-08-08T00:06:31;51.26;49.43;58.63;;
66460;Laerm;58055;52.456;4.738;2023-08-08T00:06:41;52.55;49.16;67.06;;
66460;Laerm;58055;52.456;4.738;2023-08-08T00:06:52;51.31;49.21;63.08;;
66460;Laerm;58055;52.456;4.738;2023-08-08T00:07:02;52.12;49.35;63.60;;
66460;Laerm;58055;52.456;4.738;2023-08-08T00:07:12;53.70;49.57;58.59;;
66460;Laerm;58055;52.456;4.738;2023-08-08T00:07:23;53.63;50.11;59.23;;
66460;Laerm;58055;52.456;4.738;2023-08-08T00:07:33;53.65;49.68;57.72;;
66460;Laerm;58055;52.456;4.738;2023-08-08T00:07:43;53.06;50.15;58.32;;
66460;Laerm;58055;52.456;4.738;2023-08-08T00:07:54;51.49;50.01;59.35;;
66460;Laerm;58055;52.456;4.738;2023-08-08T00:08:04;51.65;49.92;58.47;;
66460;Laerm;58055;52.456;4.738;2023-08-08T00:08:14;52.78;50.40;65.88;;
66460;Laerm;58055;52.456;4.738;2023-08-08T00:08:24;53.58;50.27;59.30;;
66460;Laerm;58055;52.456;4.738;2023-08-08T00:08:35;53.73;50.41;56.19;;
66460;Laerm;58055;52.456;4.738;2023-08-08T00:08:45;52.73;50.51;58.59;;
66460;Laerm;58055;52.456;4.738;2023-08-08T00:08:56;53.86;50.64;57.03;;
66460;Laerm;58055;52.456;4.738;2023-08-08T00:09:06;54.60;51.13;58.94;;
66460;Laerm;58055;52.456;4.738;2023-08-08T00:09:16;54.02;50.56;61.43;;
66460;Laerm;58055;52.456;4.738;2023-08-08T00:09:27;54.53;51.78;58.08;;
66460;Laerm;58055;52.456;4.738;2023-08-08T00:09:37;52.49;50.81;58.48;;
66460;Laerm;58055;52.456;4.738;2023-08-08T00:09:47;54.05;50.97;66.87;;
66460;Laerm;58055;52.456;4.738;2023-08-08T00:09:58;53.43;51.83;61.03;;
66460;Laerm;58055;52.456;4.738;2023-08-08T00:10:08;54.33;52.07;65.20;;
66460;Laerm;58055;52.456;4.738;2023-08-08T00:10:18;53.83;50.80;62.27;;
66460;Laerm;58055;52.456;4.738;2023-08-08T00:10:29;53.00;50.68;61.48;;
66460;Laerm;58055;52.456;4.738;2023-08-08T00:10:39;54.27;50.63;58.37;;
66460;Laerm;58055;52.456;4.738;2023-08-08T00:10:49;53.70;50.67;61.23;;
66460;Laerm;58055;52.456;4.738;2023-08-08T00:11:00;54.63;51.01;58.94;;
66460;Laerm;58055;52.456;4.738;2023-08-08T00:11:10;53.61;50.84;58.96;;
66460;Laerm;58055;52.456;4.738;2023-08-08T00:11:20;52.41;50.63;63.26;;
66460;Laerm;58055;52.456;4.738;2023-08-08T00:11:31;54.50;50.40;58.79;;
66460;Laerm;58055;52.456;4.738;2023-08-08T00:11:41;54.64;51.77;58.72;;
66460;Laerm;58055;52.456;4.738;2023-08-08T00:11:51;53.90;50.51;62.15;;
66460;Laerm;58055;52.456;4.738;2023-08-08T00:12:01;52.58;50.89;59.99;;
66460;Laerm;58055;52.456;4.738;2023-08-08T00:12:12;52.19;50.36;58.04;;
66460;Laerm;58055;52.456;4.738;2023-08-08T00:12:22;53.82;50.70;57.15;;
66460;Laerm;58055;52.456;4.738;2023-08-08T00:12:32;52.71;50.72;61.17;;
66460;Laerm;58055;52.456;4.738;2023-08-08T00:12:43;53.23;50.38;66.58;;
66460;Laerm;58055;52.456;4.738;2023-08-08T00:12:53;53.07;50.57;58.83;;
66460;Laerm;58055;52.456;4.738;2023-08-08T00:13:03;51.96;50.04;56.16;;
66460;Laerm;58055;52.456;4.738;2023-08-08T00:13:14;51.93;50.15;59.41;;
66460;Laerm;58055;52.456;4.738;2023-08-08T00:13:24;52.02;49.88;60.47;;
66460;Laerm;58055;52.456;4.738;2023-08-08T00:13:34;52.20;49.99;63.23;;
66460;Laerm;58055;52.456;4.738;2023-08-08T00:13:45;52.14;50.63;61.96;;
66460;Laerm;58055;52.456;4.738;2023-08-08T00:13:55;51.77;49.70;54.71;;
66460;Laerm;58055;52.456;4.738;2023-08-08T00:14:06;53.21;50.11;68.63;;
66460;Laerm;58055;52.456;4.738;2023-08-08T00:14:16;52.16;49.77;64.51;;
66460;Laerm;58055;52.456;4.738;2023-08-08T00:14:26;52.38;50.30;64.93;;
66460;Laerm;58055;52.456;4.738;2023-08-08T00:14:37;55.39;49.71;61.32;;
66460;Laerm;58055;52.456;4.738;2023-08-08T00:14:47;54.88;51.21;61.20;;
66460;Laerm;58055;52.456;4.738;2023-08-08T00:14:57;52.65;51.08;62.05;;
66460;Laerm;58055;52.456;4.738;2023-08-08T00:15:08;52.91;49.90;59.95;;
66460;Laerm;58055;52.456;4.738;2023-08-08T00:15:18;54.10;50.77;61.21;;
66460;Laerm;58055;52.456;4.738;2023-08-08T00:15:29;54.47;51.32;58.26;;
66460;Laerm;58055;52.456;4.738;2023-08-08T00:15:39;55.20;51.55;59.38;;
66460;Laerm;58055;52.456;4.738;2023-08-08T00:15:49;55.27;50.72;59.46;;
66460;Laerm;58055;52.456;4.738;2023-08-08T00:15:59;54.63;50.70;58.79;;
66460;Laerm;58055;52.456;4.738;2023-08-08T00:16:10;53.67;49.93;66.79;;
66460;Laerm;58055;52.456;4.738;2023-08-08T00:16:20;51.95;49.30;58.90;;
66460;Laerm;58055;52.456;4.738;2023-08-08T00:16:30;52.12;50.72;59.49;;
66460;Laerm;58055;52.456;4.738;2023-08-08T00:16:41;52.71;50.40;61.48;;
66460;Laerm;58055;52.456;4.738;2023-08-08T00:16:51;52.08;49.97;61.49;;
66460;Laerm;58055;52.456;4.738;2023-08-08T00:17:01;51.85;50.12;63.52;;
66460;Laerm;58055;52.456;4.738;2023-08-08T00:17:12;52.02;50.21;56.65;;
66460;Laerm;58055;52.456;4.738;2023-08-08T00:17:22;52.16;50.58;58.27;;
66460;Laerm;58055;52.456;4.738;2023-08-08T00:17:32;52.15;50.34;64.64;;
66460;Laerm;58055;52.456;4.738;2023-08-08T00:17:43;52.23;50.61;57.69;;
66460;Laerm;58055;52.456;4.738;2023-08-08T00:17:53;52.34;51.01;59.73;;
66460;Laerm;58055;52.456;4.738;2023-08-08T00:18:03;52.20;50.71;58.32;;
66460;Laerm;58055;52.456;4.738;2023-08-08T00:18:13;52.36;50.27;64.14;;
66460;Laerm;58055;52.456;4.738;2023-08-08T00:18:24;52.08;49.99;62.36;;
66460;Laerm;58055;52.456;4.738;2023-08-08T00:18:34;52.24;51.07;56.96;;
66460;Laerm;58055;52.456;4.738;2023-08-08T00:18:44;52.16;50.60;57.74;;
66460;Laerm;58055;52.456;4.738;2023-08-08T00:18:55;52.41;50.45;64.16;;
66460;Laerm;58055;52.456;4.738;2023-08-08T00:19:05;52.15;50.56;57.65;;
66460;Laerm;58055;52.456;4.738;2023-08-08T00:19:15;52.03;50.50;57.82;;
66460;Laerm;58055;52.456;4.738;2023-08-08T00:19:26;51.90;50.19;54.45;;
66460;Laerm;58055;52.456;4.738;2023-08-08T00:19:36;51.78;50.26;54.20;;
66460;Laerm;58055;52.456;4.738;2023-08-08T00:19:46;51.84;50.29;56.49;;
66460;Laerm;58055;52.456;4.738;2023-08-08T00:19:56;52.04;50.40;60.75;;
66460;Laerm;58055;52.456;4.738;2023-08-08T00:20:07;51.75;50.17;55.06;;
66460;Laerm;58055;52.456;4.738;2023-08-08T00:20:17;52.16;50.71;59.48;;
66460;Laerm;58055;52.456;4.738;2023-08-08T00:20:28;53.35;49.98;64.60;;
66460;Laerm;58055;52.456;4.738;2023-08-08T00:20:38;56.95;50.16;61.76;;
66460;Laerm;58055;52.456;4.738;2023-08-08T00:20:48;54.88;50.21;63.08;;
66460;Laerm;58055;52.456;4.738;2023-08-08T00:20:58;53.46;51.70;58.37;;
66460;Laerm;58055;52.456;4.738;2023-08-08T00:21:09;52.84;47.88;55.65;;
66460;Laerm;58055;52.456;4.738;2023-08-08T00:21:19;53.44;50.63;57.74;;
66460;Laerm;58055;52.456;4.738;2023-08-08T00:21:30;53.56;51.22;59.18;;
66460;Laerm;58055;52.456;4.738;2023-08-08T00:21:40;53.55;50.99;61.66;;
66460;Laerm;58055;52.456;4.738;2023-08-08T00:21:50;54.30;51.45;67.52;;
66460;Laerm;58055;52.456;4.738;2023-08-08T00:22:01;53.71;51.68;64.06;;
66460;Laerm;58055;52.456;4.738;2023-08-08T00:22:11;54.15;50.92;65.73;;
66460;Laerm;58055;52.456;4.738;2023-08-08T00:22:21;53.72;50.69;66.88;;
66460;Laerm;58055;52.456;4.738;2023-08-08T00:22:32;51.42;47.58;58.89;;
66460;Laerm;58055;52.456;4.738;2023-08-08T00:22:42;61.69;47.33;68.23;;
66460;Laerm;58055;52.456;4.738;2023-08-08T00:22:52;64.69;60.44;68.93;;
66460;Laerm;58055;52.456;4.738;2023-08-08T00:23:02;63.66;56.57;67.75;;
66460;Laerm;58055;52.456;4.738;2023-08-08T00:23:13;64.53;56.74;68.38;;
66460;Laerm;58055;52.456;4.738;2023-08-08T00:23:23;64.23;53.80;67.65;;
66460;Laerm;58055;52.456;4.738;2023-08-08T00:23:33;64.99;58.76;67.86;;
66460;Laerm;58055;52.456;4.738;2023-08-08T00:23:43;63.69;59.35;67.98;;
66460;Laerm;58055;52.456;4.738;2023-08-08T00:23:54;63.91;57.78;67.50;;
66460;Laerm;58055;52.456;4.738;2023-08-08T00:24:04;63.78;54.86;67.68;;
66460;Laerm;58055;52.456;4.738;2023-08-08T00:24:14;64.40;57.40;68.03;;
66460;Laerm;58055;52.456;4.738;2023-08-08T00:24:25;64.13;54.69;67.50;;
66460;Laerm;58055;52.456;4.738;2023-08-08T00:24:35;61.06;47.64;67.17;;
66460;Laerm;58055;52.456;4.738;2023-08-08T00:24:45;57.16;49.86;62.87;;
66460;Laerm;58055;52.456;4.738;2023-08-08T00:24:56;56.97;50.75;61.39;;
66460;Laerm;58055;52.456;4.738;2023-08-08T00:25:07;55.67;47.99;61.17;;
66460;Laerm;58055;52.456;4.738;2023-08-08T00:25:17;56.33;48.29;60.92;;
66460;Laerm;58055;52.456;4.738;2023-08-08T00:25:27;53.40;47.39;65.15;;
66460;Laerm;58055;52.456;4.738;2023-08-08T00:25:37;49.97;47.35;61.95;;
66460;Laerm;58055;52.456;4.738;2023-08-08T00:25:48;49.30;47.47;55.60;;
66460;Laerm;58055;52.456;4.738;2023-08-08T00:26:00;51.36;47.10;66.32;;
66460;Laerm;58055;52.456;4.738;2023-08-08T00:26:10;51.22;46.75;66.74;;
66460;Laerm;58055;52.456;4.738;2023-08-08T00:26:21;50.83;48.02;64.61;;
66460;Laerm;58055;52.456;4.738;2023-08-08T00:26:31;50.69;47.73;62.69;;
66460;Laerm;58055;52.456;4.738;2023-08-08T00:26:41;51.33;47.62;61.04;;
66460;Laerm;58055;52.456;4.738;2023-08-08T00:26:51;51.20;47.40;61.00;;
66460;Laerm;58055;52.456;4.738;2023-08-08T00:27:02;50.52;47.85;60.77;;
66460;Laerm;58055;52.456;4.738;2023-08-08T00:27:12;50.88;47.22;61.26;;
66460;Laerm;58055;52.456;4.738;2023-08-08T00:27:22;50.06;47.65;60.39;;
66460;Laerm;58055;52.456;4.738;2023-08-08T00:27:32;50.23;48.00;60.71;;
66460;Laerm;58055;52.456;4.738;2023-08-08T00:27:43;50.42;48.20;60.76;;
66460;Laerm;58055;52.456;4.738;2023-08-08T00:27:54;51.26;47.91;60.87;;
66460;Laerm;58055;52.456;4.738;2023-08-08T00:28:04;50.61;47.97;58.73;;
66460;Laerm;58055;52.456;4.738;2023-08-08T00:28:15;50.20;47.43;58.53;;
66460;Laerm;58055;52.456;4.738;2023-08-08T00:28:25;49.70;47.26;62.35;;
66460;Laerm;58055;52.456;4.738;2023-08-08T00:28:35;55.21;48.17;60.60;;
66460;Laerm;58055;52.456;4.738;2023-08-08T00:28:46;55.07;48.26;61.03;;
66460;Laerm;58055;52.456;4.738;2023-08-08T00:28:56;56.27;49.66;60.32;;
66460;Laerm;58055;52.456;4.738;2023-08-08T00:29:06;51.49;47.31;66.01;;
66460;Laerm;58055;52.456;4.738;2023-08-08T00:29:16;49.94;47.58;59.13;;
66460;Laerm;58055;52.456;4.738;2023-08-08T00:29:27;49.63;47.46;57.60;;
66460;Laerm;58055;52.456;4.738;2023-08-08T00:29:37;49.95;47.21;60.85;;
66460;Laerm;58055;52.456;4.738;2023-08-08T00:29:47;49.36;47.13;54.32;;
66460;Laerm;58055;52.456;4.738;2023-08-08T00:29:58;50.05;47.40;64.18;;
66460;Laerm;58055;52.456;4.738;2023-08-08T00:30:08;53.88;48.09;61.12;;
66460;Laerm;58055;52.456;4.738;2023-08-08T00:30:19;56.16;48.38;61.73;;
66460;Laerm;58055;52.456;4.738;2023-08-08T00:30:29;51.93;47.83;64.93;;
66460;Laerm;58055;52.456;4.738;2023-08-08T00:30:39;50.31;47.58;64.72;;
66460;Laerm;58055;52.456;4.738;2023-08-08T00:30:49;50.38;47.38;60.57;;
66460;Laerm;58055;52.456;4.738;2023-08-08T00:31:00;49.62;47.28;54.34;;
66460;Laerm;58055;52.456;4.738;2023-08-08T00:31:10;50.00;48.12;59.83;;
66460;Laerm;58055;52.456;4.738;2023-08-08T00:31:20;51.09;47.28;67.05;;
66460;Laerm;58055;52.456;4.738;2023-08-08T00:31:31;54.49;47.52;66.79;;
66460;Laerm;58055;52.456;4.738;2023-08-08T00:31:41;49.96;47.60;57.78;;
66460;Laerm;58055;52.456;4.738;2023-08-08T00:31:51;52.96;47.98;60.66;;
66460;Laerm;58055;52.456;4.738;2023-08-08T00:32:02;54.92;47.59;60.26;;
66460;Laerm;58055;52.456;4.738;2023-08-08T00:32:12;55.80;49.54;59.48;;
66460;Laerm;58055;52.456;4.738;2023-08-08T00:32:23;55.68;49.67;60.80;;
66460;Laerm;58055;52.456;4.738;2023-08-08T00:32:33;55.15;48.58;62.92;;
66460;Laerm;58055;52.456;4.738;2023-08-08T00:32:43;54.89;49.48;60.96;;
66460;Laerm;58055;52.456;4.738;2023-08-08T00:32:53;54.95;49.73;61.24;;
66460;Laerm;58055;52.456;4.738;2023-08-08T00:33:04;54.63;49.78;57.45;;
66460;Laerm;58055;52.456;4.738;2023-08-08T00:33:14;54.08;48.73;58.03;;
66460;Laerm;58055;52.456;4.738;2023-08-08T00:33:24;54.58;51.31;60.67;;
66460;Laerm;58055;52.456;4.738;2023-08-08T00:33:35;54.62;48.99;63.73;;
66460;Laerm;58055;52.456;4.738;2023-08-08T00:33:45;54.57;49.65;59.63;;
66460;Laerm;58055;52.456;4.738;2023-08-08T00:33:55;56.01;49.43;67.14;;
66460;Laerm;58055;52.456;4.738;2023-08-08T00:34:05;55.77;48.47;65.87;;
66460;Laerm;58055;52.456;4.738;2023-08-08T00:34:16;56.04;49.15;66.37;;
66460;Laerm;58055;52.456;4.738;2023-08-08T00:34:26;55.69;52.54;59.15;;
66460;Laerm;58055;52.456;4.738;2023-08-08T00:34:36;56.00;50.20;64.94;;
66460;Laerm;58055;52.456;4.738;2023-08-08T00:34:47;55.70;49.80;61.34;;
66460;Laerm;58055;52.456;4.738;2023-08-08T00:34:57;55.54;49.15;59.84;;
66460;Laerm;58055;52.456;4.738;2023-08-08T00:35:07;55.75;49.24;61.81;;
66460;Laerm;58055;52.456;4.738;2023-08-08T00:35:18;55.81;47.92;65.01;;
66460;Laerm;58055;52.456;4.738;2023-08-08T00:35:28;54.21;48.14;62.23;;
66460;Laerm;58055;52.456;4.738;2023-08-08T00:35:38;54.11;47.70;64.38;;
66460;Laerm;58055;52.456;4.738;2023-08-08T00:35:49;54.45;48.50;63.79;;
66460;Laerm;58055;52.456;4.738;2023-08-08T00:35:59;53.64;48.58;62.19;;
66460;Laerm;58055;52.456;4.738;2023-08-08T00:36:09;53.65;48.64;63.10;;
66460;Laerm;58055;52.456;4.738;2023-08-08T00:36:20;53.36;48.85;62.80;;
66460;Laerm;58055;52.456;4.738;2023-08-08T00:36:30;53.51;48.56;63.40;;
66460;Laerm;58055;52.456;4.738;2023-08-08T00:36:40;53.84;49.13;64.05;;
66460;Laerm;58055;52.456;4.738;2023-08-08T00:36:50;53.85;48.96;62.73;;
66460;Laerm;58055;52.456;4.738;2023-08-08T00:37:01;54.93;49.33;65.11;;
66460;Laerm;58055;52.456;4.738;2023-08-08T00:37:11;53.98;48.98;64.62;;
66460;Laerm;58055;52.456;4.738;2023-08-08T00:37:21;55.19;48.39;64.47;;
66460;Laerm;58055;52.456;4.738;2023-08-08T00:37:31;53.99;48.10;64.05;;
66460;Laerm;58055;52.456;4.738;2023-08-08T00:37:42;54.21;48.38;64.15;;
66460;Laerm;58055;52.456;4.738;2023-08-08T00:37:52;53.95;48.38;63.34;;
66460;Laerm;58055;52.456;4.738;2023-08-08T00:38:02;54.19;48.75;64.38;;
66460;Laerm;58055;52.456;4.738;2023-08-08T00:38:13;53.36;48.24;62.39;;
66460;Laerm;58055;52.456;4.738;2023-08-08T00:38:23;53.94;48.13;64.25;;
66460;Laerm;58055;52.456;4.738;2023-08-08T00:38:33;52.70;48.67;62.76;;
66460;Laerm;58055;52.456;4.738;2023-08-08T00:38:43;54.14;48.72;64.71;;
66460;Laerm;58055;52.456;4.738;2023-08-08T00:38:54;54.22;48.65;63.65;;
66460;Laerm;58055;52.456;4.738;2023-08-08T00:39:04;54.43;48.18;64.53;;
66460;Laerm;58055;52.456;4.738;2023-08-08T00:39:14;52.07;47.96;63.60;;
66460;Laerm;58055;52.456;4.738;2023-08-08T00:39:25;49.76;47.34;59.46;;
66460;Laerm;58055;52.456;4.738;2023-08-08T00:39:35;49.72;47.74;60.49;;
66460;Laerm;58055;52.456;4.738;2023-08-08T00:39:45;49.80;47.61;60.27;;
66460;Laerm;58055;52.456;4.738;2023-08-08T00:39:56;51.48;47.60;61.68;;
66460;Laerm;58055;52.456;4.738;2023-08-08T00:40:06;53.50;48.42;61.93;;
66460;Laerm;58055;52.456;4.738;2023-08-08T00:40:17;52.67;47.49;63.78;;
66460;Laerm;58055;52.456;4.738;2023-08-08T00:40:27;50.75;47.54;62.94;;
66460;Laerm;58055;52.456;4.738;2023-08-08T00:40:39;49.83;47.27;57.74;;
66460;Laerm;58055;52.456;4.738;2023-08-08T00:40:49;49.63;47.42;57.26;;
66460;Laerm;58055;52.456;4.738;2023-08-08T00:40:59;49.32;47.26;61.92;;
66460;Laerm;58055;52.456;4.738;2023-08-08T00:41:10;49.70;47.03;64.55;;
66460;Laerm;58055;52.456;4.738;2023-08-08T00:41:20;49.17;47.26;59.56;;
66460;Laerm;58055;52.456;4.738;2023-08-08T00:41:31;49.23;47.39;60.17;;
66460;Laerm;58055;52.456;4.738;2023-08-08T00:41:41;48.81;46.89;51.55;;
66460;Laerm;58055;52.456;4.738;2023-08-08T00:41:52;49.11;46.91;56.70;;
66460;Laerm;58055;52.456;4.738;2023-08-08T00:42:02;48.95;47.11;59.50;;
66460;Laerm;58055;52.456;4.738;2023-08-08T00:42:12;49.19;47.43;57.26;;
66460;Laerm;58055;52.456;4.738;2023-08-08T00:42:23;49.59;47.28;60.13;;
66460;Laerm;58055;52.456;4.738;2023-08-08T00:42:33;49.33;47.05;57.89;;
66460;Laerm;58055;52.456;4.738;2023-08-08T00:42:44;49.18;47.36;57.57;;
66460;Laerm;58055;52.456;4.738;2023-08-08T00:42:54;49.06;47.32;57.92;;
66460;Laerm;58055;52.456;4.738;2023-08-08T00:43:04;49.53;47.38;62.48;;
66460;Laerm;58055;52.456;4.738;2023-08-08T00:43:14;49.23;47.02;59.14;;
66460;Laerm;58055;52.456;4.738;2023-08-08T00:43:25;49.10;47.30;56.95;;
66460;Laerm;58055;52.456;4.738;2023-08-08T00:43:35;48.97;47.40;50.90;;
66460;Laerm;58055;52.456;4.738;2023-08-08T00:43:45;49.45;47.35;58.18;;
66460;Laerm;58055;52.456;4.738;2023-08-08T00:43:55;49.07;47.39;59.14;;
66460;Laerm;58055;52.456;4.738;2023-08-08T00:44:06;49.26;46.91;62.30;;
66460;Laerm;58055;52.456;4.738;2023-08-08T00:44:16;49.16;46.91;58.75;;
66460;Laerm;58055;52.456;4.738;2023-08-08T00:44:26;49.06;47.27;58.15;;
66460;Laerm;58055;52.456;4.738;2023-08-08T00:44:36;49.19;47.59;57.63;;
66460;Laerm;58055;52.456;4.738;2023-08-08T00:44:48;49.41;46.95;63.21;;
66460;Laerm;58055;52.456;4.738;2023-08-08T00:44:58;49.40;47.04;64.63;;
66460;Laerm;58055;52.456;4.738;2023-08-08T00:45:13;49.12;47.16;60.28;;
66460;Laerm;58055;52.456;4.738;2023-08-08T00:45:23;50.45;47.33;61.39;;
66460;Laerm;58055;52.456;4.738;2023-08-08T00:45:34;52.89;47.99;63.78;;
66460;Laerm;58055;52.456;4.738;2023-08-08T00:45:44;53.24;47.77;61.93;;
66460;Laerm;58055;52.456;4.738;2023-08-08T00:45:55;53.15;47.83;63.24;;
66460;Laerm;58055;52.456;4.738;2023-08-08T00:46:05;53.65;48.01;63.24;;
66460;Laerm;58055;52.456;4.738;2023-08-08T00:46:16;53.48;47.79;63.86;;
66460;Laerm;58055;52.456;4.738;2023-08-08T00:46:27;53.68;48.00;64.30;;
66460;Laerm;58055;52.456;4.738;2023-08-08T00:46:37;53.79;48.00;62.67;;
66460;Laerm;58055;52.456;4.738;2023-08-08T00:46:47;53.64;48.11;63.17;;
66460;Laerm;58055;52.456;4.738;2023-08-08T00:46:58;52.86;47.82;63.71;;
66460;Laerm;58055;52.456;4.738;2023-08-08T00:47:08;53.60;47.93;63.16;;
66460;Laerm;58055;52.456;4.738;2023-08-08T00:47:19;53.12;47.90;63.31;;
66460;Laerm;58055;52.456;4.738;2023-08-08T00:47:30;52.44;47.67;61.60;;
66460;Laerm;58055;52.456;4.738;2023-08-08T00:47:41;54.26;47.74;64.02;;
66460;Laerm;58055;52.456;4.738;2023-08-08T00:47:51;52.16;47.83;64.10;;
66460;Laerm;58055;52.456;4.738;2023-08-08T00:48:01;53.10;47.87;62.97;;
66460;Laerm;58055;52.456;4.738;2023-08-08T00:48:12;53.09;48.00;62.76;;
66460;Laerm;58055;52.456;4.738;2023-08-08T00:48:23;53.47;48.32;63.25;;
66460;Laerm;58055;52.456;4.738;2023-08-08T00:48:34;54.32;48.09;63.46;;
66460;Laerm;58055;52.456;4.738;2023-08-08T00:48:44;53.95;47.42;63.47;;
66460;Laerm;58055;52.456;4.738;2023-08-08T00:48:55;54.38;47.97;64.46;;
66460;Laerm;58055;52.456;4.738;2023-08-08T00:49:05;53.30;48.03;62.72;;
66460;Laerm;58055;52.456;4.738;2023-08-08T00:49:15;53.32;47.99;63.73;;
66460;Laerm;58055;52.456;4.738;2023-08-08T00:49:25;52.73;48.20;61.80;;
66460;Laerm;58055;52.456;4.738;2023-08-08T00:49:36;51.87;47.42;62.23;;
66460;Laerm;58055;52.456;4.738;2023-08-08T00:49:46;49.71;47.37;59.30;;
66460;Laerm;58055;52.456;4.738;2023-08-08T00:49:59;49.60;47.59;56.26;;
66460;Laerm;58055;52.456;4.738;2023-08-08T00:50:09;49.95;47.23;60.88;;
66460;Laerm;58055;52.456;4.738;2023-08-08T00:50:20;49.96;47.40;62.57;;
66460;Laerm;58055;52.456;4.738;2023-08-08T00:50:31;49.75;47.42;59.46;;
66460;Laerm;58055;52.456;4.738;2023-08-08T00:50:42;49.45;47.71;56.89;;
66460;Laerm;58055;52.456;4.738;2023-08-08T00:50:54;49.76;47.21;61.94;;
66460;Laerm;58055;52.456;4.738;2023-08-08T00:51:04;49.51;47.48;61.54;;
66460;Laerm;58055;52.456;4.738;2023-08-08T00:51:14;49.30;47.44;58.46;;
66460;Laerm;58055;52.456;4.738;2023-08-08T00:51:25;49.52;47.25;59.50;;
66460;Laerm;58055;52.456;4.738;2023-08-08T00:51:35;50.10;47.46;61.67;;
66460;Laerm;58055;52.456;4.738;2023-08-08T00:51:46;50.63;47.24;66.13;;
66460;Laerm;58055;52.456;4.738;2023-08-08T00:51:57;50.32;47.16;65.82;;
66460;Laerm;58055;52.456;4.738;2023-08-08T00:52:08;50.62;47.68;63.71;;
66460;Laerm;58055;52.456;4.738;2023-08-08T00:52:18;50.86;48.74;59.25;;
66460;Laerm;58055;52.456;4.738;2023-08-08T00:52:28;51.25;48.64;64.48;;
66460;Laerm;58055;52.456;4.738;2023-08-08T00:52:39;50.65;47.40;57.94;;
66460;Laerm;58055;52.456;4.738;2023-08-08T00:52:50;50.44;48.69;53.76;;
66460;Laerm;58055;52.456;4.738;2023-08-08T00:53:00;50.82;48.73;60.45;;
66460;Laerm;58055;52.456;4.738;2023-08-08T00:53:10;50.88;48.29;64.30;;
66460;Laerm;58055;52.456;4.738;2023-08-08T00:53:21;51.20;48.07;61.33;;
66460;Laerm;58055;52.456;4.738;2023-08-08T00:53:33;54.07;47.81;63.75;;
66460;Laerm;58055;52.456;4.738;2023-08-08T00:53:44;54.49;48.86;65.09;;
66460;Laerm;58055;52.456;4.738;2023-08-08T00:53:54;54.17;48.48;62.99;;
66460;Laerm;58055;52.456;4.738;2023-08-08T00:54:05;53.58;48.46;62.90;;
66460;Laerm;58055;52.456;4.738;2023-08-08T00:54:16;53.98;48.58;64.49;;
66460;Laerm;58055;52.456;4.738;2023-08-08T00:54:26;53.50;48.53;62.73;;
66460;Laerm;58055;52.456;4.738;2023-08-08T00:54:37;53.33;48.70;63.12;;
66460;Laerm;58055;52.456;4.738;2023-08-08T00:54:47;53.64;48.07;62.70;;
66460;Laerm;58055;52.456;4.738;2023-08-08T00:55:00;53.51;48.35;63.64;;
66460;Laerm;58055;52.456;4.738;2023-08-08T00:55:11;53.35;48.71;62.90;;
66460;Laerm;58055;52.456;4.738;2023-08-08T00:55:22;53.55;48.80;61.84;;
66460;Laerm;58055;52.456;4.738;2023-08-08T00:55:32;54.02;48.64;64.29;;
66460;Laerm;58055;52.456;4.738;2023-08-08T00:55:43;53.03;48.38;63.92;;
66460;Laerm;58055;52.456;4.738;2023-08-08T00:55:54;51.59;47.99;64.37;;
66460;Laerm;58055;52.456;4.738;2023-08-08T00:56:04;51.28;47.80;65.77;;
66460;Laerm;58055;52.456;4.738;2023-08-08T00:56:15;51.49;48.03;67.32;;
66460;Laerm;58055;52.456;4.738;2023-08-08T00:56:27;50.91;47.56;66.32;;
66460;Laerm;58055;52.456;4.738;2023-08-08T00:56:37;50.69;48.06;61.87;;
66460;Laerm;58055;52.456;4.738;2023-08-08T00:56:47;53.94;47.64;63.99;;
66460;Laerm;58055;52.456;4.738;2023-08-08T00:56:58;54.34;48.48;63.36;;
66460;Laerm;58055;52.456;4.738;2023-08-08T00:57:08;53.85;48.52;62.72;;
66460;Laerm;58055;52.456;4.738;2023-08-08T00:57:18;54.47;48.33;66.34;;
66460;Laerm;58055;52.456;4.738;2023-08-08T00:57:28;54.28;48.67;62.86;;
66460;Laerm;58055;52.456;4.738;2023-08-08T00:57:39;54.09;48.60;63.42;;
66460;Laerm;58055;52.456;4.738;2023-08-08T00:57:50;54.34;48.18;64.50;;
66460;Laerm;58055;52.456;4.738;2023-08-08T00:58:00;54.84;48.50;63.86;;
66460;Laerm;58055;52.456;4.738;2023-08-08T00:58:10;53.84;48.00;63.69;;
66460;Laerm;58055;52.456;4.738;2023-08-08T00:58:21;50.60;48.26;62.08;;